GCLA Airport Information

Runway Information
Runway 01 Length 7218 ft width 148 ft
Elevation 103 ft Threshold 0 ft Heading 359
Runway 19 Length 7218 ft Width 148 ft
Elevation 65 ft Threshold 0 ft Heading 179
Airport Frequencies
Type APP Name CANARIAS A Frequency 126.1 MHZ
Type ATIS Name INFO Frequency 118.6 MHZ
Type GND Name GND Frequency 121.8 MHZ
Type TWR Name TWR Frequency 118.9 MHZ
Airport Navaids
Type DME Name La Palma Frequency 112400 KHZ
Type NDB Name La Palma Frequency 389 KHZ
Airport Weather Information & NOTAM
ADDS - METARS form results

(1247 UTC 23 February 2019)
Data provider http://aviationweather.gov/metar/data/
 
METAR text: GCLA 231230Z 16009KT 100V210 CAVOK 25/09 Q1023
Conditions at: GCLA (LA PALMA AIRPORT, ES) observed 1230 UTC 23 February 2019
Temperature: 25.0°C (77°F)
Dewpoint: 9.0°C (48°F) [RH = 36%]
Pressure (altimeter): 30.21 inches Hg (1023.0 mb)
Winds: from the SSE (160 degrees) at 10 MPH (9 knots; 4.6 m/s)
Visibility: 6 or more miles (10+ km)
Ceiling: ceiling and visibility are OK
Clouds: unknown
Weather: no significant weather observed at this time

METAR text: GCLA 231200Z 17004KT 120V240 CAVOK 23/14 Q1023
Conditions at: GCLA (LA PALMA AIRPORT, ES) observed 1200 UTC 23 February 2019
Temperature: 23.0°C (73°F)
Dewpoint: 14.0°C (57°F) [RH = 57%]
Pressure (altimeter): 30.21 inches Hg (1023.0 mb)
Winds: from the S (170 degrees) at 5 MPH (4 knots; 2.1 m/s)
Visibility: 6 or more miles (10+ km)
Ceiling: ceiling and visibility are OK
Clouds: unknown
Weather: no significant weather observed at this time

Forecast for: GCLA (LA PALMA AIRPORT, ES)
Text: TAF GCLA 230800Z 2309/2409 08007KT CAVOK TX27/2314Z TN17/2406Z
Forecast period: 0900 UTC 23 February 2019 to 0900 UTC 24 February 2019
Forecast type: FROM: standard forecast or significant change
Winds: from the E (80 degrees) at 8 MPH (7 knots; 3.6 m/s)
Visibility: 6 or more miles 10+ km)
Ceiling: unknown
Clouds: missing
Weather: no significant weather forecast for this period